createdAt,value
2023-03-04T00:02:06.467Z,100632.41
2023-03-04T00:04:33.256Z,100703.13
2023-03-04T00:07:00.247Z,100702.28
2023-03-04T00:09:27.198Z,100701.44
2023-03-04T00:11:53.959Z,100688.84
2023-03-04T00:14:21.141Z,100620.66
2023-03-04T00:16:49.264Z,100701.44
2023-03-04T00:19:16.114Z,100626.78
2023-03-04T00:21:43.359Z,100700.00
2023-03-04T00:24:10.109Z,100663.06
2023-03-04T00:26:36.945Z,100627.59
2023-03-04T00:29:03.877Z,100644.34
2023-03-04T00:31:30.794Z,100624.50
2023-03-04T00:33:57.537Z,100626.50
2023-03-04T00:36:25.424Z,100678.19
2023-03-04T00:38:52.275Z,100682.13
2023-03-04T00:41:19.130Z,100641.84
2023-03-04T00:43:45.976Z,100654.69
2023-03-04T00:46:12.796Z,100680.72
2023-03-04T00:48:39.719Z,100688.28
2023-03-04T00:51:06.517Z,100640.44
2023-03-04T00:53:33.248Z,100616.13
2023-03-04T00:56:00.093Z,100649.38
2023-03-04T00:58:26.971Z,100658.03
2023-03-04T01:00:53.748Z,100658.31
2023-03-04T01:03:20.784Z,100679.28
2023-03-04T01:05:47.706Z,100662.19
2023-03-04T01:08:14.486Z,100703.88
2023-03-04T01:10:41.228Z,100655.47
2023-03-04T01:13:08.259Z,100692.72
2023-03-04T01:15:35.056Z,100691.59
2023-03-04T01:18:01.934Z,100579.78
2023-03-04T01:20:28.823Z,100638.75
2023-03-04T01:22:55.567Z,100654.69
2023-03-04T01:25:22.337Z,100527.59
2023-03-04T01:27:49.211Z,100649.38
2023-03-04T01:30:15.958Z,100660.84
2023-03-04T01:32:42.722Z,100613.53
2023-03-04T01:35:10.001Z,100629.72
2023-03-04T01:37:36.809Z,100647.59
2023-03-04T01:40:03.812Z,100626.88
2023-03-04T01:42:32.022Z,100669.34
2023-03-04T01:44:58.874Z,100674.16
2023-03-04T01:47:28.170Z,100646.75
2023-03-04T01:49:57.582Z,100642.31
2023-03-04T01:52:24.484Z,100686.16
2023-03-04T01:54:51.338Z,100640.09
2023-03-04T01:57:25.819Z,100598.72
2023-03-04T02:00:22.334Z,100678.38
2023-03-04T02:02:51.037Z,100643.97
2023-03-04T02:05:17.819Z,100668.56
2023-03-04T02:07:44.561Z,100642.00
2023-03-04T02:10:11.642Z,100640.06
2023-03-04T02:12:38.521Z,100610.13
2023-03-04T02:15:06.436Z,100647.88
2023-03-04T02:17:33.321Z,100623.28
2023-03-04T02:20:15.826Z,100589.44
2023-03-04T02:22:47.526Z,100607.34
2023-03-04T02:25:18.572Z,100677.19
2023-03-04T02:27:45.314Z,100627.75
2023-03-04T02:30:12.679Z,100650.66
2023-03-04T02:32:39.455Z,100670.22
2023-03-04T02:35:06.879Z,100623.28
2023-03-04T02:37:33.726Z,100673.00
2023-03-04T02:40:00.448Z,100476.31
2023-03-04T02:42:27.263Z,100656.81
2023-03-04T02:45:00.431Z,100585.25
2023-03-04T02:47:27.179Z,100636.44
2023-03-04T02:49:53.959Z,100472.41
2023-03-04T02:52:22.748Z,100632.81
2023-03-04T02:54:49.498Z,100636.75
2023-03-04T02:57:16.325Z,100607.69
2023-03-04T02:59:43.291Z,100605.19
2023-03-04T03:02:10.232Z,100614.41
2023-03-04T03:04:37.621Z,100604.06
2023-03-04T03:07:04.581Z,100563.28
2023-03-04T03:09:31.416Z,100603.81
2023-03-04T03:11:58.188Z,100640.38
2023-03-04T03:14:25.240Z,100637.84
2023-03-04T03:16:52.049Z,100638.38
2023-03-04T03:19:18.797Z,100633.09
2023-03-04T03:21:45.708Z,100639.81
2023-03-04T03:24:12.424Z,100642.84
2023-03-04T03:26:40.197Z,100609.84
2023-03-04T03:29:07.204Z,100569.09
2023-03-04T03:31:34.123Z,100631.69
2023-03-04T03:34:00.903Z,100626.41
2023-03-04T03:36:27.904Z,100595.94
2023-03-04T03:38:54.856Z,100632.81
2023-03-04T03:41:21.644Z,100490.31
2023-03-04T03:43:48.428Z,100595.09
2023-03-04T03:46:15.343Z,100630.56
2023-03-04T03:48:42.203Z,100641.19
2023-03-04T03:51:09.061Z,100612.63
2023-03-04T03:53:35.938Z,100600.84
2023-03-04T03:56:02.745Z,100644.75
2023-03-04T03:58:29.693Z,100635.50
2023-03-04T04:00:58.325Z,100631.84
2023-03-04T04:03:25.468Z,100572.88
2023-03-04T04:05:52.425Z,100554.09
2023-03-04T04:08:19.278Z,100573.94
2023-03-04T04:10:46.160Z,100562.16
2023-03-04T04:13:13.118Z,100629.53
2023-03-04T04:15:39.904Z,100611.16
2023-03-04T04:18:07.054Z,100548.28
2023-03-04T04:20:34.296Z,100612.34
2023-03-04T04:23:01.192Z,100581.88
2023-03-04T04:25:28.358Z,100583.59
2023-03-04T04:27:55.374Z,100566.84
2023-03-04T04:30:22.219Z,100611.00
2023-03-04T04:32:50.083Z,100541.16
2023-03-04T04:35:17.205Z,100627.47
2023-03-04T04:37:43.957Z,100572.47
2023-03-04T04:40:11.415Z,100571.94
2023-03-04T04:42:38.236Z,100583.91
2023-03-04T04:45:05.486Z,100624.97
2023-03-04T04:47:32.222Z,100564.06
2023-03-04T04:49:59.148Z,100586.16
2023-03-04T04:52:25.936Z,100628.38
2023-03-04T04:54:52.663Z,100604.59
2023-03-04T04:57:19.553Z,100589.25
2023-03-04T04:59:46.425Z,100584.50
2023-03-04T05:02:13.265Z,100590.66
2023-03-04T05:04:40.162Z,100598.47
2023-03-04T05:07:06.899Z,100639.00
2023-03-04T05:09:33.716Z,100624.22
2023-03-04T05:12:00.702Z,100573.66
2023-03-04T05:14:27.518Z,100613.34
2023-03-04T05:16:54.375Z,100632.31
2023-03-04T05:19:21.623Z,100571.44
2023-03-04T05:21:48.474Z,100569.50
2023-03-04T05:24:15.298Z,100595.19
2023-03-04T05:26:43.693Z,100631.81
2023-03-04T05:29:10.472Z,100572.03
2023-03-04T05:31:37.232Z,100614.22
2023-03-04T05:34:04.437Z,100560.84
2023-03-04T05:36:31.247Z,100581.50
2023-03-04T05:38:57.998Z,100584.31
2023-03-04T05:41:26.078Z,100608.63
2023-03-04T05:43:53.090Z,100636.84
2023-03-04T05:46:25.577Z,100584.59
2023-03-04T05:48:53.593Z,100626.22
2023-03-04T05:51:20.616Z,100569.78
2023-03-04T05:53:47.623Z,100581.50
2023-03-04T05:56:18.373Z,100625.69
2023-03-04T05:58:45.198Z,100587.66
2023-03-04T06:01:12.032Z,100549.13
2023-03-04T06:03:39.154Z,100624.28
2023-03-04T06:06:06.601Z,100635.78
2023-03-04T06:08:33.498Z,100597.19
2023-03-04T06:11:00.800Z,100570.38
2023-03-04T06:13:27.771Z,100574.84
2023-03-04T06:15:55.582Z,100609.19
2023-03-04T06:18:23.071Z,100598.00
2023-03-04T06:20:50.073Z,100605.00
2023-03-04T06:23:17.333Z,100640.25
2023-03-04T06:25:44.303Z,100603.03
2023-03-04T06:28:11.131Z,100648.34
2023-03-04T06:30:37.946Z,100610.56
2023-03-04T06:33:04.878Z,100621.22
2023-03-04T06:35:31.736Z,100600.84
2023-03-04T06:37:58.459Z,100594.38
2023-03-04T06:40:25.322Z,100483.25
2023-03-04T06:42:52.060Z,100556.13
2023-03-04T06:45:18.883Z,100652.25
2023-03-04T06:47:45.851Z,100622.56
2023-03-04T06:50:13.030Z,100601.34
2023-03-04T06:52:40.175Z,100646.38
2023-03-04T06:55:07.985Z,100590.47
2023-03-04T06:57:34.836Z,100634.31
2023-03-04T07:00:03.550Z,100592.94
2023-03-04T07:02:30.458Z,100653.00
2023-03-04T07:04:57.218Z,100618.34
2023-03-04T07:07:25.792Z,100626.72
2023-03-04T07:09:52.742Z,100649.34
2023-03-04T07:12:19.506Z,100622.78
2023-03-04T07:14:46.248Z,100644.03
2023-03-04T07:17:13.201Z,100663.59
2023-03-04T07:19:40.623Z,100664.16
2023-03-04T07:22:07.502Z,100610.50
2023-03-04T07:24:34.463Z,100640.13
2023-03-04T07:27:01.310Z,100671.13
2023-03-04T07:29:28.115Z,100648.50
2023-03-04T07:31:55.682Z,100592.91
2023-03-04T07:34:22.586Z,100594.88
2023-03-04T07:36:49.390Z,100669.56
2023-03-04T07:39:16.266Z,100625.38
2023-03-04T07:41:43.124Z,100621.75
2023-03-04T07:44:13.163Z,100620.66
2023-03-04T07:46:40.336Z,100632.41
2023-03-04T07:49:07.537Z,100681.91
2023-03-04T07:51:35.200Z,100629.66
2023-03-04T07:54:02.150Z,100617.94
2023-03-04T07:56:31.422Z,100572.69
2023-03-04T07:58:58.304Z,100653.66
2023-03-04T08:01:35.802Z,100577.97
2023-03-04T08:04:03.979Z,100647.72
2023-03-04T08:06:30.794Z,100696.88
2023-03-04T08:08:59.285Z,100632.03
2023-03-04T08:11:26.108Z,100690.94
2023-03-04T08:13:54.348Z,100704.00
2023-03-04T08:16:21.947Z,100692.56
2023-03-04T08:18:52.484Z,100690.81
2023-03-04T08:21:19.870Z,100671.50
2023-03-04T08:23:47.350Z,100670.88
2023-03-04T08:26:21.106Z,100724.13
2023-03-04T08:28:48.153Z,100670.09
2023-03-04T08:31:15.288Z,100706.84
2023-03-04T08:33:42.094Z,100686.69
2023-03-04T08:36:09.162Z,100679.69
2023-03-04T08:38:36.056Z,100720.00
2023-03-04T08:41:04.210Z,100683.88
2023-03-04T08:43:31.188Z,100678.13
2023-03-04T08:45:58.011Z,100716.00
2023-03-04T08:48:24.904Z,100708.84
2023-03-04T08:50:51.917Z,100689.72
2023-03-04T08:53:18.929Z,100663.16
2023-03-04T08:55:46.220Z,100706.53
2023-03-04T08:58:13.235Z,100701.78
2023-03-04T09:00:43.263Z,100683.94
2023-03-04T09:03:13.533Z,100699.19
2023-03-04T09:05:40.674Z,100709.94
2023-03-04T09:08:08.075Z,100723.59
2023-03-04T09:10:34.958Z,100704.63
2023-03-04T09:13:02.028Z,100747.13
2023-03-04T09:15:28.958Z,100733.19
2023-03-04T09:17:55.950Z,100709.66
2023-03-04T09:20:23.381Z,100684.81
2023-03-04T09:22:50.256Z,100697.41
2023-03-04T09:25:17.218Z,100745.97
2023-03-04T09:27:44.075Z,100685.38
2023-03-04T09:30:11.470Z,100704.91
2023-03-04T09:32:38.548Z,100731.66
2023-03-04T09:35:05.822Z,100742.19
2023-03-04T09:37:32.765Z,100737.81
2023-03-04T09:39:59.714Z,100719.66
2023-03-04T09:42:42.250Z,100720.06
2023-03-04T09:45:11.785Z,100714.59
2023-03-04T09:47:38.564Z,100740.88
2023-03-04T09:50:08.045Z,100644.31
2023-03-04T09:53:02.113Z,100733.97
2023-03-04T09:55:28.921Z,100746.47
2023-03-04T09:58:13.870Z,100749.19
2023-03-04T10:00:57.085Z,100703.25
2023-03-04T10:03:45.341Z,100724.63
2023-03-04T10:06:13.787Z,100748.03
2023-03-04T10:08:59.497Z,100736.22
2023-03-04T10:11:47.192Z,100737.50
2023-03-04T10:14:23.163Z,100734.75
2023-03-04T10:17:01.084Z,100708.50
2023-03-04T10:19:27.806Z,100738.88
2023-03-04T10:21:54.552Z,100742.69
2023-03-04T10:24:22.997Z,100717.44
2023-03-04T10:26:54.389Z,100686.25
2023-03-04T10:29:24.509Z,100724.91
2023-03-04T10:31:51.560Z,100727.56
2023-03-04T10:34:18.449Z,100692.00
2023-03-04T10:36:54.899Z,100672.41
2023-03-04T10:39:25.594Z,100721.72
2023-03-04T10:42:02.592Z,100715.59
2023-03-04T10:44:29.824Z,100650.75
2023-03-04T10:46:57.466Z,100713.72
2023-03-04T10:49:25.199Z,100679.63
2023-03-04T10:52:02.314Z,100683.47
2023-03-04T10:54:42.126Z,100719.50
2023-03-04T10:57:23.898Z,100699.69
2023-03-04T11:00:18.467Z,100716.34
2023-03-04T11:02:46.301Z,100723.81
2023-03-04T11:05:23.613Z,100631.59
2023-03-04T11:07:56.225Z,100690.72
2023-03-04T11:10:28.447Z,100610.63
2023-03-04T11:13:02.164Z,100710.19
2023-03-04T11:15:31.361Z,100718.75
2023-03-04T11:18:04.686Z,100688.69
2023-03-04T11:20:32.343Z,100710.53
2023-03-04T11:23:10.176Z,100702.31
2023-03-04T11:25:38.794Z,100669.22
2023-03-04T11:28:22.227Z,100653.63
2023-03-04T11:30:52.277Z,100695.38
2023-03-04T11:33:29.105Z,100668.94
2023-03-04T11:36:09.867Z,100680.19
2023-03-04T11:38:40.377Z,100687.16
2023-03-04T11:41:13.370Z,100656.47
2023-03-04T11:43:42.514Z,100641.59
2023-03-04T11:46:10.414Z,100693.84
2023-03-04T11:48:40.315Z,100682.78
2023-03-04T11:51:21.363Z,100688.94
2023-03-04T11:53:57.105Z,100683.41
2023-03-04T11:56:44.759Z,100614.31
2023-03-04T11:59:26.465Z,100684.81
2023-03-04T12:01:59.998Z,100674.22
2023-03-04T12:05:03.658Z,100641.00
2023-03-04T12:08:09.512Z,100665.88
2023-03-04T12:11:04.316Z,100640.25
2023-03-04T12:13:46.210Z,100574.69
2023-03-04T12:16:25.088Z,100652.75
2023-03-04T12:18:58.604Z,100653.00
2023-03-04T12:21:34.741Z,100644.41
2023-03-04T12:24:19.276Z,100568.03
2023-03-04T12:26:58.793Z,100605.66
2023-03-04T12:29:28.736Z,100637.25
2023-03-04T12:32:04.821Z,100621.50
2023-03-04T12:34:33.609Z,100622.41
2023-03-04T12:37:27.851Z,100610.94
2023-03-04T12:40:17.314Z,100611.78
2023-03-04T12:42:53.072Z,100595.66
2023-03-04T12:45:29.432Z,100564.66
2023-03-04T12:48:11.460Z,100601.84
2023-03-04T12:50:56.647Z,100595.28
2023-03-04T12:53:38.337Z,100539.72
2023-03-04T12:56:05.191Z,100541.69
2023-03-04T12:58:32.807Z,100574.72
2023-03-04T13:01:12.886Z,100582.63
2023-03-04T13:04:06.031Z,100572.50
2023-03-04T13:06:47.993Z,100557.72
2023-03-04T13:09:35.918Z,100553.16
2023-03-04T13:12:02.669Z,100566.28
2023-03-04T13:14:30.483Z,100531.19
2023-03-04T13:17:37.463Z,100547.38
2023-03-04T13:20:32.377Z,100546.38
2023-03-04T13:23:05.244Z,100537.84
2023-03-04T13:25:45.271Z,100547.78
2023-03-04T13:28:28.866Z,100530.91
2023-03-04T13:30:56.000Z,100537.72
2023-03-04T13:33:22.749Z,100536.13
2023-03-04T13:35:50.560Z,100528.66
2023-03-04T13:38:33.526Z,100517.00
2023-03-04T13:41:09.481Z,100514.63
2023-03-04T13:43:39.991Z,100509.34
2023-03-04T13:46:19.241Z,100512.00
2023-03-04T13:48:52.304Z,100495.06
2023-03-04T13:51:46.285Z,100444.59
2023-03-04T13:54:28.974Z,100494.69
2023-03-04T13:57:01.783Z,100487.00
2023-03-04T13:59:44.905Z,100490.00
2023-03-04T14:02:12.715Z,100445.69
2023-03-04T14:04:40.777Z,100462.16
2023-03-04T14:07:22.220Z,100449.72
2023-03-04T14:09:56.210Z,100477.56
2023-03-04T14:12:23.413Z,100435.75
2023-03-04T14:14:55.357Z,100469.91
2023-03-04T14:17:45.782Z,100413.06
2023-03-04T14:20:39.607Z,100446.50
2023-03-04T14:23:26.546Z,100463.91
2023-03-04T14:26:27.715Z,100440.31
2023-03-04T14:28:57.586Z,100461.13
2023-03-04T14:31:25.087Z,100458.69
2023-03-04T14:33:59.961Z,100425.13
2023-03-04T14:36:27.094Z,100454.44
2023-03-04T14:38:54.912Z,100463.59
2023-03-04T14:41:43.454Z,100435.34
2023-03-04T14:44:24.139Z,100458.13
2023-03-04T14:47:06.513Z,100313.63
2023-03-04T14:49:35.876Z,100430.25
2023-03-04T14:52:02.788Z,100465.63
2023-03-04T14:54:39.328Z,100444.69
2023-03-04T14:57:35.740Z,100447.72
2023-03-04T15:00:38.207Z,100419.97
2023-03-04T15:03:21.847Z,100427.94
2023-03-04T15:05:49.079Z,100424.72
2023-03-04T15:08:26.144Z,100414.44
2023-03-04T15:11:00.547Z,100413.94
2023-03-04T15:13:39.787Z,100445.69
2023-03-04T15:16:06.963Z,100429.41
2023-03-04T15:18:33.827Z,100442.50
2023-03-04T15:21:02.038Z,100406.78
2023-03-04T15:23:30.224Z,100391.47
2023-03-04T15:26:01.974Z,100408.38
2023-03-04T15:28:36.502Z,100432.34
2023-03-04T15:31:04.386Z,100429.66
2023-03-04T15:33:31.411Z,100404.34
2023-03-04T15:36:02.353Z,100455.88
2023-03-04T15:38:29.367Z,100453.72
2023-03-04T15:40:58.481Z,100418.28
2023-03-04T15:43:25.511Z,100359.53
2023-03-04T15:45:52.662Z,100459.47
2023-03-04T15:48:19.674Z,100416.91
2023-03-04T15:50:57.237Z,100400.91
2023-03-04T15:53:49.483Z,100441.84
2023-03-04T15:56:36.530Z,100444.31
2023-03-04T15:59:13.476Z,100387.03
2023-03-04T16:01:40.427Z,100418.28
2023-03-04T16:04:17.034Z,100436.44
2023-03-04T16:06:44.778Z,100436.03
2023-03-04T16:09:14.386Z,100407.59
2023-03-04T16:11:44.549Z,100381.31
2023-03-04T16:14:14.910Z,100423.84
2023-03-04T16:16:44.588Z,100417.34
2023-03-04T16:19:11.818Z,100450.41
2023-03-04T16:21:38.591Z,100399.69
2023-03-04T16:24:05.942Z,100397.38
2023-03-04T16:26:32.767Z,100451.41
2023-03-04T16:29:00.578Z,100455.38
2023-03-04T16:31:27.545Z,100454.03
2023-03-04T16:33:54.391Z,100365.03
2023-03-04T16:36:27.660Z,100404.31
2023-03-04T16:38:59.218Z,100399.94
2023-03-04T16:41:28.185Z,100425.69
2023-03-04T16:43:56.710Z,100382.94
2023-03-04T16:46:23.900Z,100413.66
2023-03-04T16:48:50.879Z,100426.72
2023-03-04T16:51:19.567Z,100457.56
2023-03-04T16:53:53.771Z,100391.53
2023-03-04T16:56:20.858Z,100392.16
2023-03-04T16:58:47.655Z,100426.53
2023-03-04T17:01:26.103Z,100433.00
2023-03-04T17:03:54.009Z,100414.50
2023-03-04T17:06:21.182Z,100433.88
2023-03-04T17:08:48.173Z,100474.31
2023-03-04T17:11:19.713Z,100433.09
2023-03-04T17:13:46.528Z,100469.75
2023-03-04T17:16:13.366Z,100464.16
2023-03-04T17:18:40.222Z,100452.81
2023-03-04T17:21:08.728Z,100434.28
2023-03-04T17:23:35.463Z,100448.03
2023-03-04T17:26:02.274Z,100444.19
2023-03-04T17:28:29.350Z,100450.13
2023-03-04T17:30:56.205Z,100450.13
2023-03-04T17:33:23.164Z,100450.56
2023-03-04T17:35:50.130Z,100497.09
2023-03-04T17:38:17.148Z,100492.44
2023-03-04T17:40:44.049Z,100451.41
2023-03-04T17:43:13.784Z,100468.50
2023-03-04T17:45:40.586Z,100492.16
2023-03-04T17:48:07.889Z,100461.44
2023-03-04T17:50:35.160Z,100492.38
2023-03-04T17:53:01.996Z,100464.78
2023-03-04T17:55:28.772Z,100455.09
2023-03-04T17:57:57.599Z,100493.22
2023-03-04T18:00:24.606Z,100497.78
2023-03-04T18:02:51.454Z,100475.06
2023-03-04T18:05:18.552Z,100466.34
2023-03-04T18:07:45.294Z,100427.59
2023-03-04T18:10:12.319Z,100447.69
2023-03-04T18:12:39.340Z,100495.91
2023-03-04T18:15:06.698Z,100502.16
2023-03-04T18:17:33.424Z,100496.94
2023-03-04T18:20:01.985Z,100472.34
2023-03-04T18:22:29.657Z,100478.47
2023-03-04T18:24:56.486Z,100434.34
2023-03-04T18:27:23.286Z,100457.03
2023-03-04T18:29:50.050Z,100454.63
2023-03-04T18:32:17.045Z,100513.44
2023-03-04T18:34:43.806Z,100472.03
2023-03-04T18:37:10.568Z,100514.44
2023-03-04T18:39:37.430Z,100397.13
2023-03-04T18:42:04.315Z,100468.19
2023-03-04T18:44:31.246Z,100514.22
2023-03-04T18:46:58.096Z,100512.47
2023-03-04T18:49:25.024Z,100536.69
2023-03-04T18:51:52.100Z,100504.38
2023-03-04T18:54:19.160Z,100530.09
2023-03-04T18:56:51.764Z,100494.31
2023-03-04T18:59:21.765Z,100469.88
2023-03-04T19:01:48.600Z,100527.84
2023-03-04T19:04:15.686Z,100545.75
2023-03-04T19:06:42.513Z,100480.66
2023-03-04T19:09:09.348Z,100489.84
2023-03-04T19:11:36.185Z,100523.13
2023-03-04T19:14:02.972Z,100520.00
2023-03-04T19:16:29.814Z,100541.13
2023-03-04T19:18:56.811Z,100545.06
2023-03-04T19:21:23.555Z,100499.13
2023-03-04T19:23:50.335Z,100548.47
2023-03-04T19:26:19.561Z,100525.03
2023-03-04T19:28:46.307Z,100534.59
2023-03-04T19:31:13.527Z,100507.78
2023-03-04T19:33:40.936Z,100549.09
2023-03-04T19:36:08.460Z,100533.69
2023-03-04T19:38:35.528Z,100535.34
2023-03-04T19:41:13.365Z,100486.16
2023-03-04T19:43:40.448Z,100539.59
2023-03-04T19:46:07.837Z,100520.63
2023-03-04T19:48:35.248Z,100486.78
2023-03-04T19:51:02.291Z,100530.41
2023-03-04T19:53:29.626Z,100419.94
2023-03-04T19:55:56.493Z,100533.13
2023-03-04T19:58:23.358Z,100489.16
2023-03-04T20:00:52.158Z,100532.84
2023-03-04T20:03:19.131Z,100516.16
2023-03-04T20:05:46.595Z,100488.28
2023-03-04T20:08:13.583Z,100511.91
2023-03-04T20:10:41.332Z,100501.88
2023-03-04T20:13:08.811Z,100489.59
2023-03-04T20:15:35.677Z,100474.59
2023-03-04T20:18:02.651Z,100468.97
2023-03-04T20:20:29.439Z,100502.56
2023-03-04T20:22:56.688Z,100451.38
2023-03-04T20:25:24.586Z,100474.81
2023-03-04T20:27:51.446Z,100415.75
2023-03-04T20:30:18.595Z,100524.03
2023-03-04T20:32:45.619Z,100495.97
2023-03-04T20:35:15.134Z,100522.38
2023-03-04T20:37:42.348Z,100528.84
2023-03-04T20:40:11.168Z,100498.72
2023-03-04T20:42:38.018Z,100473.53
2023-03-04T20:45:05.174Z,100487.31
2023-03-04T20:47:32.216Z,100501.56
2023-03-04T20:49:58.956Z,100497.72
2023-03-04T20:52:25.749Z,100496.06
2023-03-04T20:54:52.796Z,100525.78
2023-03-04T20:57:19.615Z,100506.59
2023-03-04T20:59:46.342Z,100532.53
2023-03-04T21:02:14.825Z,100534.00
2023-03-04T21:04:41.787Z,100536.25
2023-03-04T21:07:08.544Z,100532.91
2023-03-04T21:09:35.396Z,100507.41
2023-03-04T21:12:02.272Z,100550.38
2023-03-04T21:14:30.232Z,100508.00
2023-03-04T21:16:58.601Z,100500.75
2023-03-04T21:19:29.647Z,100526.50
2023-03-04T21:21:56.926Z,100511.97
2023-03-04T21:24:26.701Z,100492.28
2023-03-04T21:26:53.475Z,100519.84
2023-03-04T21:29:22.323Z,100484.41
2023-03-04T21:31:54.224Z,100550.19
2023-03-04T21:34:28.238Z,100535.47
2023-03-04T21:36:55.260Z,100550.50
2023-03-04T21:39:23.215Z,100547.16
2023-03-04T21:41:50.192Z,100521.56
2023-03-04T21:44:27.791Z,100557.31
2023-03-04T21:46:59.218Z,100486.00
2023-03-04T21:49:26.492Z,100522.00
2023-03-04T21:51:53.299Z,100504.44
2023-03-04T21:54:20.150Z,100516.69
2023-03-04T21:56:47.143Z,100542.34
2023-03-04T21:59:14.334Z,100487.97
2023-03-04T22:01:41.731Z,100508.06
2023-03-04T22:04:08.668Z,100520.94
2023-03-04T22:06:35.659Z,100552.34
2023-03-04T22:09:02.845Z,100550.41
2023-03-04T22:11:30.316Z,100518.94
2023-03-04T22:13:58.317Z,100542.28
2023-03-04T22:16:25.302Z,100513.06
2023-03-04T22:18:52.232Z,100551.25
2023-03-04T22:21:19.649Z,100531.13
2023-03-04T22:23:46.473Z,100475.22
2023-03-04T22:26:18.162Z,100545.31
2023-03-04T22:28:45.183Z,100519.41
2023-03-04T22:31:29.901Z,100500.41
2023-03-04T22:34:01.095Z,100498.13
2023-03-04T22:36:34.417Z,100486.44
2023-03-04T22:39:02.124Z,100466.38
2023-03-04T22:41:28.908Z,100474.66
2023-03-04T22:43:56.067Z,100490.84
2023-03-04T22:46:27.626Z,100492.97
2023-03-04T22:48:56.005Z,100525.25
2023-03-04T22:51:22.757Z,100506.03
2023-03-04T22:53:50.363Z,100524.13
2023-03-04T22:56:17.614Z,100504.91
2023-03-04T22:58:45.111Z,100533.34
2023-03-04T23:01:12.661Z,100501.81
2023-03-04T23:03:40.169Z,100496.78
2023-03-04T23:06:08.078Z,100461.16
2023-03-04T23:08:35.756Z,100507.56
2023-03-04T23:11:03.267Z,100483.44
2023-03-04T23:13:30.188Z,100514.31
2023-03-04T23:15:57.091Z,100502.88
2023-03-04T23:18:24.065Z,100464.56
2023-03-04T23:20:50.883Z,100471.75
2023-03-04T23:23:17.626Z,100503.00
2023-03-04T23:25:46.462Z,100496.78
2023-03-04T23:28:13.200Z,100478.56
2023-03-04T23:30:39.990Z,100465.78
2023-03-04T23:33:06.895Z,100451.06
2023-03-04T23:35:33.689Z,100475.28
2023-03-04T23:38:00.528Z,100502.00
2023-03-04T23:40:27.414Z,100430.25
2023-03-04T23:42:54.206Z,100475.91
2023-03-04T23:45:20.980Z,100466.22
2023-03-04T23:47:47.901Z,100500.41
2023-03-04T23:50:16.144Z,100507.44
2023-03-04T23:52:44.099Z,100469.25
2023-03-04T23:55:15.877Z,100487.72
2023-03-04T23:57:42.980Z,100497.72
